sensor_id;sensor_type;location;lat;lon;timestamp;temperature;humidity
53520;DHT22;39397;53.204;5.778;2023-05-28T00:00:08;10.60;99.90
53520;DHT22;39397;53.204;5.778;2023-05-28T00:02:34;10.70;99.90
53520;DHT22;39397;53.204;5.778;2023-05-28T00:05:00;10.60;99.90
53520;DHT22;39397;53.204;5.778;2023-05-28T00:07:27;9.70;99.90
53520;DHT22;39397;53.204;5.778;2023-05-28T00:09:54;10.80;99.90
53520;DHT22;39397;53.204;5.778;2023-05-28T00:12:21;10.70;99.90
53520;DHT22;39397;53.204;5.778;2023-05-28T00:14:47;10.70;99.90
53520;DHT22;39397;53.204;5.778;2023-05-28T00:17:13;10.80;99.90
53520;DHT22;39397;53.204;5.778;2023-05-28T00:19:39;10.60;99.90
53520;DHT22;39397;53.204;5.778;2023-05-28T00:22:05;10.70;99.90
53520;DHT22;39397;53.204;5.778;2023-05-28T00:24:31;10.60;99.90
53520;DHT22;39397;53.204;5.778;2023-05-28T00:26:58;10.60;99.90
53520;DHT22;39397;53.204;5.778;2023-05-28T00:29:24;10.40;99.90
53520;DHT22;39397;53.204;5.778;2023-05-28T00:31:52;10.60;99.90
53520;DHT22;39397;53.204;5.778;2023-05-28T00:34:22;10.50;99.90
53520;DHT22;39397;53.204;5.778;2023-05-28T00:36:48;10.70;99.90
53520;DHT22;39397;53.204;5.778;2023-05-28T00:39:18;10.50;99.90
53520;DHT22;39397;53.204;5.778;2023-05-28T00:41:44;10.50;99.90
53520;DHT22;39397;53.204;5.778;2023-05-28T00:44:10;11.10;99.90
53520;DHT22;39397;53.204;5.778;2023-05-28T00:46:37;10.50;99.90
53520;DHT22;39397;53.204;5.778;2023-05-28T00:49:03;10.40;99.90
53520;DHT22;39397;53.204;5.778;2023-05-28T00:51:29;10.40;99.90
53520;DHT22;39397;53.204;5.778;2023-05-28T00:53:57;10.30;99.90
53520;DHT22;39397;53.204;5.778;2023-05-28T00:56:23;8.80;99.90
53520;DHT22;39397;53.204;5.778;2023-05-28T00:58:50;10.50;99.90
53520;DHT22;39397;53.204;5.778;2023-05-28T01:01:16;10.50;99.90
53520;DHT22;39397;53.204;5.778;2023-05-28T01:03:43;10.50;99.90
53520;DHT22;39397;53.204;5.778;2023-05-28T01:06:10;10.40;99.90
53520;DHT22;39397;53.204;5.778;2023-05-28T01:08:38;10.40;99.90
53520;DHT22;39397;53.204;5.778;2023-05-28T01:11:11;10.40;99.90
53520;DHT22;39397;53.204;5.778;2023-05-28T01:13:38;10.40;99.90
53520;DHT22;39397;53.204;5.778;2023-05-28T01:16:04;10.70;99.90
53520;DHT22;39397;53.204;5.778;2023-05-28T01:18:30;10.50;99.90
53520;DHT22;39397;53.204;5.778;2023-05-28T01:20:59;10.90;99.90
53520;DHT22;39397;53.204;5.778;2023-05-28T01:23:28;10.50;99.90
53520;DHT22;39397;53.204;5.778;2023-05-28T01:25:54;10.50;99.90
53520;DHT22;39397;53.204;5.778;2023-05-28T01:28:21;10.50;99.90
53520;DHT22;39397;53.204;5.778;2023-05-28T01:30:47;10.50;99.90
53520;DHT22;39397;53.204;5.778;2023-05-28T01:33:13;10.60;99.90
53520;DHT22;39397;53.204;5.778;2023-05-28T01:35:41;10.40;99.90
53520;DHT22;39397;53.204;5.778;2023-05-28T01:38:09;10.50;99.90
53520;DHT22;39397;53.204;5.778;2023-05-28T01:40:36;10.50;99.90
53520;DHT22;39397;53.204;5.778;2023-05-28T01:43:04;10.40;99.90
53520;DHT22;39397;53.204;5.778;2023-05-28T01:45:30;10.60;99.90
53520;DHT22;39397;53.204;5.778;2023-05-28T01:47:56;10.50;99.90
53520;DHT22;39397;53.204;5.778;2023-05-28T01:50:23;10.40;99.90
53520;DHT22;39397;53.204;5.778;2023-05-28T01:52:49;10.40;99.90
53520;DHT22;39397;53.204;5.778;2023-05-28T01:55:15;10.50;99.90
53520;DHT22;39397;53.204;5.778;2023-05-28T01:57:40;10.50;99.90
53520;DHT22;39397;53.204;5.778;2023-05-28T02:00:07;10.40;99.90
53520;DHT22;39397;53.204;5.778;2023-05-28T02:02:33;10.40;99.90
53520;DHT22;39397;53.204;5.778;2023-05-28T02:04:59;10.50;99.90
53520;DHT22;39397;53.204;5.778;2023-05-28T02:07:25;10.50;99.90
53520;DHT22;39397;53.204;5.778;2023-05-28T02:09:51;10.70;99.90
53520;DHT22;39397;53.204;5.778;2023-05-28T02:12:17;10.40;99.90
53520;DHT22;39397;53.204;5.778;2023-05-28T02:14:44;11.30;99.90
53520;DHT22;39397;53.204;5.778;2023-05-28T02:17:10;10.50;99.90
53520;DHT22;39397;53.204;5.778;2023-05-28T02:19:36;10.50;99.90
53520;DHT22;39397;53.204;5.778;2023-05-28T02:22:03;10.60;99.90
53520;DHT22;39397;53.204;5.778;2023-05-28T02:24:37;10.60;99.90
53520;DHT22;39397;53.204;5.778;2023-05-28T02:27:05;10.50;99.90
53520;DHT22;39397;53.204;5.778;2023-05-28T02:29:31;10.50;99.90
53520;DHT22;39397;53.204;5.778;2023-05-28T02:31:57;10.60;99.90
53520;DHT22;39397;53.204;5.778;2023-05-28T02:34:22;10.50;99.90
53520;DHT22;39397;53.204;5.778;2023-05-28T02:36:48;10.50;99.90
53520;DHT22;39397;53.204;5.778;2023-05-28T02:39:14;10.50;99.90
53520;DHT22;39397;53.204;5.778;2023-05-28T02:41:40;10.50;99.90
53520;DHT22;39397;53.204;5.778;2023-05-28T02:44:06;10.50;99.90
53520;DHT22;39397;53.204;5.778;2023-05-28T02:46:31;10.50;99.90
53520;DHT22;39397;53.204;5.778;2023-05-28T02:48:57;10.40;99.90
53520;DHT22;39397;53.204;5.778;2023-05-28T02:51:23;10.50;99.90
53520;DHT22;39397;53.204;5.778;2023-05-28T02:53:48;10.40;99.90
53520;DHT22;39397;53.204;5.778;2023-05-28T02:56:14;10.40;99.90
53520;DHT22;39397;53.204;5.778;2023-05-28T02:58:40;10.40;99.90
53520;DHT22;39397;53.204;5.778;2023-05-28T03:01:05;10.50;99.90
53520;DHT22;39397;53.204;5.778;2023-05-28T03:03:32;10.40;99.90
53520;DHT22;39397;53.204;5.778;2023-05-28T03:05:58;10.40;99.90
53520;DHT22;39397;53.204;5.778;2023-05-28T03:08:24;10.30;99.90
53520;DHT22;39397;53.204;5.778;2023-05-28T03:10:50;10.30;99.90
53520;DHT22;39397;53.204;5.778;2023-05-28T03:13:15;10.30;99.90
53520;DHT22;39397;53.204;5.778;2023-05-28T03:15:41;10.40;99.90
53520;DHT22;39397;53.204;5.778;2023-05-28T03:18:07;10.30;99.90
53520;DHT22;39397;53.204;5.778;2023-05-28T03:20:33;10.30;99.90
53520;DHT22;39397;53.204;5.778;2023-05-28T03:22:59;10.30;99.90
53520;DHT22;39397;53.204;5.778;2023-05-28T03:25:25;10.30;99.90
53520;DHT22;39397;53.204;5.778;2023-05-28T03:27:54;10.60;99.90
53520;DHT22;39397;53.204;5.778;2023-05-28T03:30:20;10.30;99.90
53520;DHT22;39397;53.204;5.778;2023-05-28T03:32:48;10.20;99.90
53520;DHT22;39397;53.204;5.778;2023-05-28T03:35:14;10.30;99.90
53520;DHT22;39397;53.204;5.778;2023-05-28T03:37:39;10.30;99.90
53520;DHT22;39397;53.204;5.778;2023-05-28T03:40:06;10.30;99.90
53520;DHT22;39397;53.204;5.778;2023-05-28T03:42:32;10.20;99.90
53520;DHT22;39397;53.204;5.778;2023-05-28T03:44:58;10.20;99.90
53520;DHT22;39397;53.204;5.778;2023-05-28T03:47:24;10.20;99.90
53520;DHT22;39397;53.204;5.778;2023-05-28T03:49:50;10.20;99.90
53520;DHT22;39397;53.204;5.778;2023-05-28T03:52:16;10.20;99.90
53520;DHT22;39397;53.204;5.778;2023-05-28T03:54:41;10.30;99.90
53520;DHT22;39397;53.204;5.778;2023-05-28T03:57:07;10.20;99.90
53520;DHT22;39397;53.204;5.778;2023-05-28T03:59:33;10.30;99.90
53520;DHT22;39397;53.204;5.778;2023-05-28T04:01:58;10.30;99.90
53520;DHT22;39397;53.204;5.778;2023-05-28T04:04:24;10.40;99.90
53520;DHT22;39397;53.204;5.778;2023-05-28T04:06:50;10.30;99.90
53520;DHT22;39397;53.204;5.778;2023-05-28T04:09:15;10.40;99.90
53520;DHT22;39397;53.204;5.778;2023-05-28T04:11:41;10.30;99.90
53520;DHT22;39397;53.204;5.778;2023-05-28T04:14:07;10.30;99.90
53520;DHT22;39397;53.204;5.778;2023-05-28T04:16:34;10.50;99.90
53520;DHT22;39397;53.204;5.778;2023-05-28T04:19:00;10.40;99.90
53520;DHT22;39397;53.204;5.778;2023-05-28T04:21:26;10.40;99.90
53520;DHT22;39397;53.204;5.778;2023-05-28T04:23:54;10.80;99.90
53520;DHT22;39397;53.204;5.778;2023-05-28T04:26:20;10.60;99.90
53520;DHT22;39397;53.204;5.778;2023-05-28T04:28:46;10.50;99.90
53520;DHT22;39397;53.204;5.778;2023-05-28T04:31:12;10.50;99.90
53520;DHT22;39397;53.204;5.778;2023-05-28T04:33:37;10.60;99.90
53520;DHT22;39397;53.204;5.778;2023-05-28T04:36:04;10.50;99.90
53520;DHT22;39397;53.204;5.778;2023-05-28T04:38:32;10.60;99.90
53520;DHT22;39397;53.204;5.778;2023-05-28T04:40:58;10.50;99.90
53520;DHT22;39397;53.204;5.778;2023-05-28T04:43:25;10.60;99.90
53520;DHT22;39397;53.204;5.778;2023-05-28T04:45:52;10.50;99.90
53520;DHT22;39397;53.204;5.778;2023-05-28T04:48:19;10.80;99.90
53520;DHT22;39397;53.204;5.778;2023-05-28T04:50:45;10.70;99.90
53520;DHT22;39397;53.204;5.778;2023-05-28T04:53:10;10.70;99.90
53520;DHT22;39397;53.204;5.778;2023-05-28T04:55:36;10.80;99.90
53520;DHT22;39397;53.204;5.778;2023-05-28T04:58:02;10.90;99.90
53520;DHT22;39397;53.204;5.778;2023-05-28T05:00:28;11.00;99.90
53520;DHT22;39397;53.204;5.778;2023-05-28T05:02:55;11.10;99.90
53520;DHT22;39397;53.204;5.778;2023-05-28T05:05:21;11.20;99.90
53520;DHT22;39397;53.204;5.778;2023-05-28T05:07:47;11.40;99.90
53520;DHT22;39397;53.204;5.778;2023-05-28T05:10:13;11.40;99.90
53520;DHT22;39397;53.204;5.778;2023-05-28T05:12:39;11.50;99.90
53520;DHT22;39397;53.204;5.778;2023-05-28T05:15:05;11.70;99.90
53520;DHT22;39397;53.204;5.778;2023-05-28T05:17:31;11.70;99.90
53520;DHT22;39397;53.204;5.778;2023-05-28T05:19:58;11.90;99.90
53520;DHT22;39397;53.204;5.778;2023-05-28T05:22:24;11.90;99.90
53520;DHT22;39397;53.204;5.778;2023-05-28T05:24:49;12.00;99.90
53520;DHT22;39397;53.204;5.778;2023-05-28T05:27:16;12.10;99.90
53520;DHT22;39397;53.204;5.778;2023-05-28T05:29:42;12.10;99.90
53520;DHT22;39397;53.204;5.778;2023-05-28T05:32:10;12.20;99.90
53520;DHT22;39397;53.204;5.778;2023-05-28T05:34:36;12.20;99.90
53520;DHT22;39397;53.204;5.778;2023-05-28T05:37:02;12.20;99.90
53520;DHT22;39397;53.204;5.778;2023-05-28T05:39:28;12.30;99.90
53520;DHT22;39397;53.204;5.778;2023-05-28T05:41:54;12.40;99.90
53520;DHT22;39397;53.204;5.778;2023-05-28T05:44:20;12.50;99.90
53520;DHT22;39397;53.204;5.778;2023-05-28T05:46:46;12.60;99.90
53520;DHT22;39397;53.204;5.778;2023-05-28T05:49:13;12.60;99.90
53520;DHT22;39397;53.204;5.778;2023-05-28T05:51:39;12.70;99.90
53520;DHT22;39397;53.204;5.778;2023-05-28T05:54:05;12.80;99.90
53520;DHT22;39397;53.204;5.778;2023-05-28T05:56:31;12.80;99.90
53520;DHT22;39397;53.204;5.778;2023-05-28T05:58:58;13.00;99.90
53520;DHT22;39397;53.204;5.778;2023-05-28T06:01:24;13.10;99.90
53520;DHT22;39397;53.204;5.778;2023-05-28T06:03:50;13.20;99.90
53520;DHT22;39397;53.204;5.778;2023-05-28T06:06:16;13.20;99.90
53520;DHT22;39397;53.204;5.778;2023-05-28T06:08:42;13.40;99.90
53520;DHT22;39397;53.204;5.778;2023-05-28T06:11:08;13.50;99.90
53520;DHT22;39397;53.204;5.778;2023-05-28T06:13:34;13.50;99.90
53520;DHT22;39397;53.204;5.778;2023-05-28T06:16:05;13.60;99.90
53520;DHT22;39397;53.204;5.778;2023-05-28T06:18:32;13.60;99.90
53520;DHT22;39397;53.204;5.778;2023-05-28T06:20:57;13.60;99.90
53520;DHT22;39397;53.204;5.778;2023-05-28T06:23:24;13.70;99.90
53520;DHT22;39397;53.204;5.778;2023-05-28T06:25:50;13.80;99.90
53520;DHT22;39397;53.204;5.778;2023-05-28T06:28:16;13.80;99.90
53520;DHT22;39397;53.204;5.778;2023-05-28T06:30:42;14.00;99.90
53520;DHT22;39397;53.204;5.778;2023-05-28T06:33:08;14.00;99.90
53520;DHT22;39397;53.204;5.778;2023-05-28T06:35:35;13.90;99.90
53520;DHT22;39397;53.204;5.778;2023-05-28T06:38:01;14.10;99.90
53520;DHT22;39397;53.204;5.778;2023-05-28T06:40:27;14.10;99.90
53520;DHT22;39397;53.204;5.778;2023-05-28T06:42:53;14.20;99.90
53520;DHT22;39397;53.204;5.778;2023-05-28T06:45:19;14.20;99.90
53520;DHT22;39397;53.204;5.778;2023-05-28T06:47:48;14.30;99.90
53520;DHT22;39397;53.204;5.778;2023-05-28T06:50:14;14.50;99.90
53520;DHT22;39397;53.204;5.778;2023-05-28T06:52:39;14.60;99.90
53520;DHT22;39397;53.204;5.778;2023-05-28T06:55:06;14.60;99.90
53520;DHT22;39397;53.204;5.778;2023-05-28T06:57:35;14.60;99.90
53520;DHT22;39397;53.204;5.778;2023-05-28T07:00:05;14.70;99.90
53520;DHT22;39397;53.204;5.778;2023-05-28T07:02:36;14.70;99.90
53520;DHT22;39397;53.204;5.778;2023-05-28T07:05:02;14.70;99.90
53520;DHT22;39397;53.204;5.778;2023-05-28T07:07:30;14.80;99.90
53520;DHT22;39397;53.204;5.778;2023-05-28T07:09:56;14.80;99.90
53520;DHT22;39397;53.204;5.778;2023-05-28T07:12:22;14.80;99.90
53520;DHT22;39397;53.204;5.778;2023-05-28T07:14:48;14.90;99.90
53520;DHT22;39397;53.204;5.778;2023-05-28T07:17:13;15.00;99.90
53520;DHT22;39397;53.204;5.778;2023-05-28T07:19:40;15.10;99.90
53520;DHT22;39397;53.204;5.778;2023-05-28T07:22:05;15.10;99.90
53520;DHT22;39397;53.204;5.778;2023-05-28T07:24:31;15.20;99.90
53520;DHT22;39397;53.204;5.778;2023-05-28T07:26:57;15.30;99.90
53520;DHT22;39397;53.204;5.778;2023-05-28T07:29:22;16.10;99.90
53520;DHT22;39397;53.204;5.778;2023-05-28T07:31:48;15.40;99.90
53520;DHT22;39397;53.204;5.778;2023-05-28T07:34:14;15.50;99.90
53520;DHT22;39397;53.204;5.778;2023-05-28T07:36:40;15.50;99.90
53520;DHT22;39397;53.204;5.778;2023-05-28T07:39:05;15.60;99.90
53520;DHT22;39397;53.204;5.778;2023-05-28T07:41:31;15.60;99.90
53520;DHT22;39397;53.204;5.778;2023-05-28T07:43:57;15.70;99.90
53520;DHT22;39397;53.204;5.778;2023-05-28T07:46:23;15.70;99.90
53520;DHT22;39397;53.204;5.778;2023-05-28T07:48:49;15.80;99.90
53520;DHT22;39397;53.204;5.778;2023-05-28T07:51:16;15.80;99.90
53520;DHT22;39397;53.204;5.778;2023-05-28T07:53:41;15.90;99.90
53520;DHT22;39397;53.204;5.778;2023-05-28T07:56:07;15.90;99.90
53520;DHT22;39397;53.204;5.778;2023-05-28T07:58:33;16.00;99.90
53520;DHT22;39397;53.204;5.778;2023-05-28T08:00:59;16.00;99.90
53520;DHT22;39397;53.204;5.778;2023-05-28T08:03:25;16.20;99.90
53520;DHT22;39397;53.204;5.778;2023-05-28T08:05:53;16.20;99.90
53520;DHT22;39397;53.204;5.778;2023-05-28T08:08:19;16.30;99.90
53520;DHT22;39397;53.204;5.778;2023-05-28T08:10:45;16.40;99.90
53520;DHT22;39397;53.204;5.778;2023-05-28T08:13:11;16.60;99.90
53520;DHT22;39397;53.204;5.778;2023-05-28T08:15:36;16.70;99.90
53520;DHT22;39397;53.204;5.778;2023-05-28T08:18:02;16.80;99.90
53520;DHT22;39397;53.204;5.778;2023-05-28T08:20:28;16.90;99.90
53520;DHT22;39397;53.204;5.778;2023-05-28T08:22:55;16.90;99.90
53520;DHT22;39397;53.204;5.778;2023-05-28T08:25:20;17.00;99.90
53520;DHT22;39397;53.204;5.778;2023-05-28T08:27:46;16.90;99.90
53520;DHT22;39397;53.204;5.778;2023-05-28T08:30:12;17.00;99.90
53520;DHT22;39397;53.204;5.778;2023-05-28T08:32:38;17.10;99.90
53520;DHT22;39397;53.204;5.778;2023-05-28T08:35:04;17.10;99.90
53520;DHT22;39397;53.204;5.778;2023-05-28T08:37:29;17.20;99.90
53520;DHT22;39397;53.204;5.778;2023-05-28T08:39:55;17.30;99.90
53520;DHT22;39397;53.204;5.778;2023-05-28T08:42:21;17.30;99.90
53520;DHT22;39397;53.204;5.778;2023-05-28T08:44:47;17.30;99.90
53520;DHT22;39397;53.204;5.778;2023-05-28T08:47:14;17.40;99.90
53520;DHT22;39397;53.204;5.778;2023-05-28T08:49:50;17.40;99.90
53520;DHT22;39397;53.204;5.778;2023-05-28T08:52:19;17.60;99.90
53520;DHT22;39397;53.204;5.778;2023-05-28T08:54:46;17.60;99.90
53520;DHT22;39397;53.204;5.778;2023-05-28T08:57:12;17.70;99.90
53520;DHT22;39397;53.204;5.778;2023-05-28T08:59:39;17.80;99.90
53520;DHT22;39397;53.204;5.778;2023-05-28T09:02:06;17.70;99.90
53520;DHT22;39397;53.204;5.778;2023-05-28T09:04:33;17.90;99.90
53520;DHT22;39397;53.204;5.778;2023-05-28T09:06:58;18.00;99.90
53520;DHT22;39397;53.204;5.778;2023-05-28T09:09:24;18.10;99.90
53520;DHT22;39397;53.204;5.778;2023-05-28T09:11:57;18.20;99.20
53520;DHT22;39397;53.204;5.778;2023-05-28T09:14:27;18.10;98.00
53520;DHT22;39397;53.204;5.778;2023-05-28T09:16:53;18.20;96.50
53520;DHT22;39397;53.204;5.778;2023-05-28T09:19:19;18.20;95.70
53520;DHT22;39397;53.204;5.778;2023-05-28T09:21:57;18.20;95.10
53520;DHT22;39397;53.204;5.778;2023-05-28T09:24:24;18.40;94.80
53520;DHT22;39397;53.204;5.778;2023-05-28T09:26:54;18.50;95.20
53520;DHT22;39397;53.204;5.778;2023-05-28T09:29:24;18.50;95.50
53520;DHT22;39397;53.204;5.778;2023-05-28T09:31:57;18.70;94.10
53520;DHT22;39397;53.204;5.778;2023-05-28T09:34:30;18.60;93.60
53520;DHT22;39397;53.204;5.778;2023-05-28T09:37:00;18.70;93.50
53520;DHT22;39397;53.204;5.778;2023-05-28T09:39:26;18.70;92.90
53520;DHT22;39397;53.204;5.778;2023-05-28T09:44:44;18.80;91.80
53520;DHT22;39397;53.204;5.778;2023-05-28T09:47:16;19.00;92.20
53520;DHT22;39397;53.204;5.778;2023-05-28T09:49:45;19.10;90.70
53520;DHT22;39397;53.204;5.778;2023-05-28T09:52:19;19.10;88.60
53520;DHT22;39397;53.204;5.778;2023-05-28T09:54:49;19.10;90.20
53520;DHT22;39397;53.204;5.778;2023-05-28T09:57:17;19.30;89.20
53520;DHT22;39397;53.204;5.778;2023-05-28T09:59:46;19.20;88.40
53520;DHT22;39397;53.204;5.778;2023-05-28T10:02:22;19.30;88.60
53520;DHT22;39397;53.204;5.778;2023-05-28T10:04:53;19.10;87.30
53520;DHT22;39397;53.204;5.778;2023-05-28T10:07:25;19.40;87.70
53520;DHT22;39397;53.204;5.778;2023-05-28T10:09:53;19.40;88.40
53520;DHT22;39397;53.204;5.778;2023-05-28T10:12:24;19.30;89.10
53520;DHT22;39397;53.204;5.778;2023-05-28T10:14:51;19.40;89.60
53520;DHT22;39397;53.204;5.778;2023-05-28T10:17:17;19.50;89.60
53520;DHT22;39397;53.204;5.778;2023-05-28T10:19:46;19.60;90.10
53520;DHT22;39397;53.204;5.778;2023-05-28T10:22:12;19.60;90.50
53520;DHT22;39397;53.204;5.778;2023-05-28T10:24:38;19.90;89.70
53520;DHT22;39397;53.204;5.778;2023-05-28T10:27:05;19.70;89.50
53520;DHT22;39397;53.204;5.778;2023-05-28T10:29:43;19.80;88.10
53520;DHT22;39397;53.204;5.778;2023-05-28T10:32:09;19.80;87.20
53520;DHT22;39397;53.204;5.778;2023-05-28T10:34:38;19.70;88.20
53520;DHT22;39397;53.204;5.778;2023-05-28T10:37:09;19.70;88.30
53520;DHT22;39397;53.204;5.778;2023-05-28T10:39:42;19.70;88.30
53520;DHT22;39397;53.204;5.778;2023-05-28T10:42:13;19.70;87.10
53520;DHT22;39397;53.204;5.778;2023-05-28T10:45:06;19.70;88.60
53520;DHT22;39397;53.204;5.778;2023-05-28T10:47:33;19.70;90.30
53520;DHT22;39397;53.204;5.778;2023-05-28T10:50:16;19.50;90.60
53520;DHT22;39397;53.204;5.778;2023-05-28T10:52:42;19.50;90.00
53520;DHT22;39397;53.204;5.778;2023-05-28T10:55:10;19.40;91.20
53520;DHT22;39397;53.204;5.778;2023-05-28T10:57:45;19.40;91.20
53520;DHT22;39397;53.204;5.778;2023-05-28T11:00:11;19.40;91.70
53520;DHT22;39397;53.204;5.778;2023-05-28T11:02:43;19.40;91.60
53520;DHT22;39397;53.204;5.778;2023-05-28T11:05:09;19.40;91.70
53520;DHT22;39397;53.204;5.778;2023-05-28T11:07:42;19.30;92.30
53520;DHT22;39397;53.204;5.778;2023-05-28T11:10:14;19.30;92.60
53520;DHT22;39397;53.204;5.778;2023-05-28T11:12:41;19.30;92.80
53520;DHT22;39397;53.204;5.778;2023-05-28T11:15:11;19.30;92.90
53520;DHT22;39397;53.204;5.778;2023-05-28T11:17:45;19.40;92.80
53520;DHT22;39397;53.204;5.778;2023-05-28T11:20:29;19.60;92.50
53520;DHT22;39397;53.204;5.778;2023-05-28T11:22:55;19.50;93.50
53520;DHT22;39397;53.204;5.778;2023-05-28T11:25:21;19.40;93.10
53520;DHT22;39397;53.204;5.778;2023-05-28T11:27:48;19.40;93.20
53520;DHT22;39397;53.204;5.778;2023-05-28T11:30:19;19.40;93.60
53520;DHT22;39397;53.204;5.778;2023-05-28T11:32:46;19.50;93.60
53520;DHT22;39397;53.204;5.778;2023-05-28T11:35:13;21.70;93.90
53520;DHT22;39397;53.204;5.778;2023-05-28T11:37:40;19.70;93.20
53520;DHT22;39397;53.204;5.778;2023-05-28T11:40:08;19.70;93.10
53520;DHT22;39397;53.204;5.778;2023-05-28T11:42:40;19.80;92.80
53520;DHT22;39397;53.204;5.778;2023-05-28T11:45:07;19.80;92.20
53520;DHT22;39397;53.204;5.778;2023-05-28T11:47:35;19.90;91.00
53520;DHT22;39397;53.204;5.778;2023-05-28T11:50:14;19.70;90.90
53520;DHT22;39397;53.204;5.778;2023-05-28T11:52:41;19.80;90.60
53520;DHT22;39397;53.204;5.778;2023-05-28T11:55:08;19.60;90.50
53520;DHT22;39397;53.204;5.778;2023-05-28T11:57:49;19.60;90.30
53520;DHT22;39397;53.204;5.778;2023-05-28T12:00:19;21.70;90.80
53520;DHT22;39397;53.204;5.778;2023-05-28T12:02:47;19.70;91.40
53520;DHT22;39397;53.204;5.778;2023-05-28T12:05:14;19.80;91.80
53520;DHT22;39397;53.204;5.778;2023-05-28T12:07:48;19.60;91.90
53520;DHT22;39397;53.204;5.778;2023-05-28T12:10:15;19.80;91.30
53520;DHT22;39397;53.204;5.778;2023-05-28T12:12:46;19.80;91.90
53520;DHT22;39397;53.204;5.778;2023-05-28T12:15:12;19.60;92.00
53520;DHT22;39397;53.204;5.778;2023-05-28T12:17:40;19.10;92.00
53520;DHT22;39397;53.204;5.778;2023-05-28T12:23:09;19.50;92.40
53520;DHT22;39397;53.204;5.778;2023-05-28T12:25:59;19.60;92.00
53520;DHT22;39397;53.204;5.778;2023-05-28T12:28:24;19.40;91.40
53520;DHT22;39397;53.204;5.778;2023-05-28T12:30:51;19.70;91.90
53520;DHT22;39397;53.204;5.778;2023-05-28T12:33:21;19.80;92.00
53520;DHT22;39397;53.204;5.778;2023-05-28T12:35:51;19.80;92.00
53520;DHT22;39397;53.204;5.778;2023-05-28T12:38:18;19.80;91.50
53520;DHT22;39397;53.204;5.778;2023-05-28T12:40:44;19.70;91.30
53520;DHT22;39397;53.204;5.778;2023-05-28T12:43:14;19.80;91.70
53520;DHT22;39397;53.204;5.778;2023-05-28T12:45:42;19.80;91.60
53520;DHT22;39397;53.204;5.778;2023-05-28T12:48:08;19.90;92.00
53520;DHT22;39397;53.204;5.778;2023-05-28T12:50:37;19.90;92.20
53520;DHT22;39397;53.204;5.778;2023-05-28T12:53:02;20.20;92.10
53520;DHT22;39397;53.204;5.778;2023-05-28T12:55:31;20.10;91.50
53520;DHT22;39397;53.204;5.778;2023-05-28T12:58:00;20.00;91.60
53520;DHT22;39397;53.204;5.778;2023-05-28T13:00:26;19.80;92.10
53520;DHT22;39397;53.204;5.778;2023-05-28T13:02:51;19.80;92.10
53520;DHT22;39397;53.204;5.778;2023-05-28T13:05:17;18.50;92.10
53520;DHT22;39397;53.204;5.778;2023-05-28T13:07:43;19.70;92.80
53520;DHT22;39397;53.204;5.778;2023-05-28T13:10:11;19.70;92.70
53520;DHT22;39397;53.204;5.778;2023-05-28T13:12:37;19.70;92.80
53520;DHT22;39397;53.204;5.778;2023-05-28T13:15:05;19.00;92.70
53520;DHT22;39397;53.204;5.778;2023-05-28T13:17:31;19.70;92.80
53520;DHT22;39397;53.204;5.778;2023-05-28T13:19:57;19.90;93.10
53520;DHT22;39397;53.204;5.778;2023-05-28T13:22:23;19.90;93.50
53520;DHT22;39397;53.204;5.778;2023-05-28T13:24:49;19.90;93.40
53520;DHT22;39397;53.204;5.778;2023-05-28T13:27:15;20.10;93.40
53520;DHT22;39397;53.204;5.778;2023-05-28T13:29:41;20.00;93.30
53520;DHT22;39397;53.204;5.778;2023-05-28T13:32:07;19.90;93.90
53520;DHT22;39397;53.204;5.778;2023-05-28T13:34:33;19.90;94.00
53520;DHT22;39397;53.204;5.778;2023-05-28T13:37:00;19.80;94.40
53520;DHT22;39397;53.204;5.778;2023-05-28T13:39:25;20.00;94.10
53520;DHT22;39397;53.204;5.778;2023-05-28T13:41:51;19.60;94.50
53520;DHT22;39397;53.204;5.778;2023-05-28T13:44:17;19.40;94.70
53520;DHT22;39397;53.204;5.778;2023-05-28T13:46:49;19.30;94.80
53520;DHT22;39397;53.204;5.778;2023-05-28T13:49:15;19.90;93.90
53520;DHT22;39397;53.204;5.778;2023-05-28T13:51:40;19.60;94.00
53520;DHT22;39397;53.204;5.778;2023-05-28T13:54:07;19.70;93.70
53520;DHT22;39397;53.204;5.778;2023-05-28T13:56:33;19.60;93.80
53520;DHT22;39397;53.204;5.778;2023-05-28T13:58:59;19.50;94.60
53520;DHT22;39397;53.204;5.778;2023-05-28T14:01:24;19.50;96.00
53520;DHT22;39397;53.204;5.778;2023-05-28T14:03:53;19.50;96.10
53520;DHT22;39397;53.204;5.778;2023-05-28T14:06:19;19.60;95.00
53520;DHT22;39397;53.204;5.778;2023-05-28T14:08:45;20.30;96.20
53520;DHT22;39397;53.204;5.778;2023-05-28T14:11:12;20.20;96.30
53520;DHT22;39397;53.204;5.778;2023-05-28T14:13:37;19.70;95.80
53520;DHT22;39397;53.204;5.778;2023-05-28T14:16:03;20.10;94.50
53520;DHT22;39397;53.204;5.778;2023-05-28T14:18:29;20.50;95.10
53520;DHT22;39397;53.204;5.778;2023-05-28T14:20:56;19.80;95.10
53520;DHT22;39397;53.204;5.778;2023-05-28T14:23:27;19.70;95.50
53520;DHT22;39397;53.204;5.778;2023-05-28T14:25:53;21.80;93.90
53520;DHT22;39397;53.204;5.778;2023-05-28T14:28:25;19.80;95.00
53520;DHT22;39397;53.204;5.778;2023-05-28T14:30:52;20.30;95.90
53520;DHT22;39397;53.204;5.778;2023-05-28T14:33:18;19.90;96.30
53520;DHT22;39397;53.204;5.778;2023-05-28T14:35:44;20.20;96.30
53520;DHT22;39397;53.204;5.778;2023-05-28T14:38:11;20.30;95.70
53520;DHT22;39397;53.204;5.778;2023-05-28T14:40:37;18.70;95.90
53520;DHT22;39397;53.204;5.778;2023-05-28T14:43:03;20.40;95.50
53520;DHT22;39397;53.204;5.778;2023-05-28T14:45:29;20.40;95.80
53520;DHT22;39397;53.204;5.778;2023-05-28T14:47:55;20.60;94.90
53520;DHT22;39397;53.204;5.778;2023-05-28T14:50:21;20.10;94.30
53520;DHT22;39397;53.204;5.778;2023-05-28T14:52:47;21.00;94.30
53520;DHT22;39397;53.204;5.778;2023-05-28T14:55:13;21.10;94.70
53520;DHT22;39397;53.204;5.778;2023-05-28T14:57:39;21.10;94.20
53520;DHT22;39397;53.204;5.778;2023-05-28T15:00:10;21.30;95.30
53520;DHT22;39397;53.204;5.778;2023-05-28T15:02:40;22.20;94.40
53520;DHT22;39397;53.204;5.778;2023-05-28T15:05:11;22.50;94.40
53520;DHT22;39397;53.204;5.778;2023-05-28T15:07:37;22.10;94.10
53520;DHT22;39397;53.204;5.778;2023-05-28T15:10:03;21.40;93.70
53520;DHT22;39397;53.204;5.778;2023-05-28T15:12:30;21.30;93.00
53520;DHT22;39397;53.204;5.778;2023-05-28T15:14:55;21.20;93.10
53520;DHT22;39397;53.204;5.778;2023-05-28T15:17:21;21.00;93.10
53520;DHT22;39397;53.204;5.778;2023-05-28T15:19:50;20.90;93.10
53520;DHT22;39397;53.204;5.778;2023-05-28T15:22:16;20.80;93.60
53520;DHT22;39397;53.204;5.778;2023-05-28T15:24:43;20.90;93.90
53520;DHT22;39397;53.204;5.778;2023-05-28T15:27:11;20.60;93.40
53520;DHT22;39397;53.204;5.778;2023-05-28T15:29:37;20.60;93.50
53520;DHT22;39397;53.204;5.778;2023-05-28T15:32:09;20.10;93.80
53520;DHT22;39397;53.204;5.778;2023-05-28T15:34:35;19.90;94.60